createdAt,value
2023-03-26T00:00:15.100Z,81
2023-03-26T00:05:15.126Z,80
2023-03-26T00:10:15.105Z,79
2023-03-26T00:15:15.102Z,78
2023-03-26T00:20:15.095Z,78
2023-03-26T00:25:15.095Z,79
2023-03-26T00:30:15.092Z,78
2023-03-26T00:35:15.104Z,79
2023-03-26T00:40:15.103Z,79
2023-03-26T00:45:15.109Z,80
2023-03-26T00:50:15.111Z,80
2023-03-26T00:55:15.102Z,80
2023-03-26T01:00:15.118Z,80
2023-03-26T01:05:15.111Z,81
2023-03-26T01:10:15.101Z,80
2023-03-26T01:15:15.107Z,80
2023-03-26T01:20:15.167Z,80
2023-03-26T01:25:15.117Z,81
2023-03-26T01:30:15.110Z,80
2023-03-26T01:35:15.101Z,81
2023-03-26T01:40:15.099Z,81
2023-03-26T01:45:15.088Z,81
2023-03-26T01:50:15.097Z,82
2023-03-26T01:55:15.104Z,82
2023-03-26T02:00:15.090Z,83
2023-03-26T02:05:15.103Z,83
2023-03-26T02:10:15.094Z,83
2023-03-26T02:15:15.098Z,83
2023-03-26T02:20:15.094Z,83
2023-03-26T02:25:15.097Z,83
2023-03-26T02:30:15.098Z,84
2023-03-26T02:35:15.141Z,83
2023-03-26T02:40:15.099Z,83
2023-03-26T02:45:15.100Z,84
2023-03-26T02:50:15.094Z,84
2023-03-26T02:55:15.102Z,85
2023-03-26T03:00:15.110Z,86
2023-03-26T03:05:15.099Z,86
2023-03-26T03:10:15.085Z,86
2023-03-26T03:15:15.086Z,87
2023-03-26T03:20:15.086Z,86
2023-03-26T03:25:15.109Z,86
2023-03-26T03:30:15.122Z,87
2023-03-26T03:35:15.094Z,87
2023-03-26T03:40:15.107Z,87
2023-03-26T03:45:15.108Z,88
2023-03-26T03:50:15.095Z,88
2023-03-26T03:55:15.108Z,88
2023-03-26T04:00:15.094Z,89
2023-03-26T04:05:15.106Z,89
2023-03-26T04:10:15.116Z,88
2023-03-26T04:15:15.121Z,89
2023-03-26T04:20:15.114Z,88
2023-03-26T04:25:15.110Z,88
2023-03-26T04:30:15.113Z,88
2023-03-26T04:35:15.113Z,88
2023-03-26T04:40:15.135Z,88
2023-03-26T04:45:15.120Z,88
2023-03-26T04:50:15.117Z,88
2023-03-26T04:55:15.111Z,89
2023-03-26T05:00:15.113Z,89
2023-03-26T05:05:15.130Z,89
2023-03-26T05:10:15.141Z,89
2023-03-26T05:15:15.109Z,89
2023-03-26T05:20:15.084Z,89
2023-03-26T05:25:15.112Z,89
2023-03-26T05:30:15.100Z,89
2023-03-26T05:35:15.104Z,89
2023-03-26T05:40:15.096Z,89
2023-03-26T05:45:15.115Z,89
2023-03-26T05:50:15.095Z,89
2023-03-26T05:55:15.106Z,89
2023-03-26T06:00:15.102Z,89
2023-03-26T06:05:15.100Z,90
2023-03-26T06:10:17.892Z,90
2023-03-26T06:15:15.091Z,90
2023-03-26T06:20:15.099Z,90
2023-03-26T06:25:15.101Z,90
2023-03-26T06:30:15.099Z,90
2023-03-26T06:35:15.101Z,90
2023-03-26T06:40:15.923Z,90
2023-03-26T06:45:15.098Z,90
2023-03-26T06:50:15.101Z,90
2023-03-26T06:55:15.097Z,89
2023-03-26T07:00:15.105Z,89
2023-03-26T07:05:15.103Z,89
2023-03-26T07:10:15.114Z,88
2023-03-26T07:15:15.104Z,88
2023-03-26T07:20:15.100Z,87
2023-03-26T07:25:15.103Z,88
2023-03-26T07:30:15.096Z,88
2023-03-26T07:35:15.110Z,88
2023-03-26T07:40:15.094Z,87
2023-03-26T07:45:15.107Z,87
2023-03-26T07:50:16.509Z,87
2023-03-26T07:55:15.105Z,87
2023-03-26T08:00:15.117Z,87
2023-03-26T08:05:15.115Z,87
2023-03-26T08:10:15.094Z,86
2023-03-26T08:15:15.089Z,86
2023-03-26T08:20:15.095Z,86
2023-03-26T08:25:15.101Z,86
2023-03-26T08:30:15.099Z,86
2023-03-26T08:35:15.100Z,86
2023-03-26T08:40:15.084Z,87
2023-03-26T08:45:15.086Z,87
2023-03-26T08:50:15.091Z,89
2023-03-26T08:55:15.115Z,89
2023-03-26T09:00:15.098Z,89
2023-03-26T09:05:15.095Z,89
2023-03-26T09:10:15.121Z,90
2023-03-26T09:15:15.092Z,90
2023-03-26T09:20:15.158Z,90
2023-03-26T09:25:15.107Z,90
2023-03-26T09:30:15.093Z,91
2023-03-26T09:35:15.107Z,90
2023-03-26T09:40:15.116Z,91
2023-03-26T09:45:15.118Z,91
2023-03-26T09:50:15.103Z,91
2023-03-26T09:55:15.104Z,91
2023-03-26T10:00:15.117Z,91
2023-03-26T10:05:15.124Z,91
2023-03-26T10:10:15.107Z,91
2023-03-26T10:15:15.109Z,91
2023-03-26T10:20:15.096Z,90
2023-03-26T10:25:15.112Z,88
2023-03-26T10:30:15.093Z,88
2023-03-26T10:35:15.101Z,89
2023-03-26T10:40:15.097Z,86
2023-03-26T10:45:15.100Z,86
2023-03-26T10:50:17.077Z,86
2023-03-26T10:55:15.103Z,87
2023-03-26T11:00:15.091Z,87
2023-03-26T11:05:15.110Z,87
2023-03-26T11:10:15.094Z,88
2023-03-26T11:15:15.121Z,89
2023-03-26T11:20:15.105Z,88
2023-03-26T11:25:15.099Z,87
2023-03-26T11:30:15.098Z,88
2023-03-26T11:35:15.113Z,87
2023-03-26T11:40:15.093Z,89
2023-03-26T11:45:15.112Z,88
2023-03-26T11:50:15.105Z,86
2023-03-26T11:55:15.101Z,86
2023-03-26T12:00:15.086Z,86
2023-03-26T12:05:15.095Z,84
2023-03-26T12:10:17.768Z,85
2023-03-26T12:15:15.076Z,85
2023-03-26T12:20:15.071Z,83
2023-03-26T12:25:15.080Z,84
2023-03-26T12:30:15.066Z,83
2023-03-26T12:35:15.084Z,84
2023-03-26T12:40:17.180Z,83
2023-03-26T12:45:15.074Z,82
2023-03-26T12:50:15.073Z,81
2023-03-26T12:55:15.076Z,83
2023-03-26T13:00:15.055Z,80
2023-03-26T13:05:15.080Z,81
2023-03-26T13:10:15.075Z,80
2023-03-26T13:15:15.085Z,80
2023-03-26T13:20:15.099Z,78
2023-03-26T13:25:15.090Z,78
2023-03-26T13:30:15.094Z,76
2023-03-26T13:35:15.106Z,75
2023-03-26T13:40:15.086Z,77
2023-03-26T13:45:15.089Z,77
2023-03-26T13:50:15.085Z,78
2023-03-26T13:55:15.091Z,79
2023-03-26T14:00:15.079Z,82
2023-03-26T14:05:15.077Z,81
2023-03-26T14:10:15.094Z,80
2023-03-26T14:15:15.124Z,79
2023-03-26T14:20:15.135Z,79
2023-03-26T14:25:15.093Z,77
2023-03-26T14:30:15.098Z,76
2023-03-26T14:35:15.093Z,75
2023-03-26T14:40:15.157Z,74
2023-03-26T14:45:15.100Z,74
2023-03-26T14:50:15.106Z,74
2023-03-26T14:55:15.107Z,75
2023-03-26T15:00:15.101Z,77
2023-03-26T15:05:15.223Z,79
2023-03-26T15:10:15.094Z,75
2023-03-26T15:15:15.110Z,73
2023-03-26T15:20:15.091Z,71
2023-03-26T15:25:15.114Z,70
2023-03-26T15:30:15.124Z,70
2023-03-26T15:35:15.109Z,70
2023-03-26T15:40:15.098Z,69
2023-03-26T15:45:15.100Z,70
2023-03-26T15:50:15.104Z,69
2023-03-26T15:55:15.088Z,69
2023-03-26T16:00:15.145Z,69
2023-03-26T16:05:15.113Z,69
2023-03-26T16:10:15.098Z,69
2023-03-26T16:15:15.092Z,69
2023-03-26T16:20:15.084Z,69
2023-03-26T16:25:26.465Z,68
2023-03-26T16:30:15.093Z,69
2023-03-26T16:35:15.079Z,69
2023-03-26T16:40:15.133Z,69
2023-03-26T16:45:15.103Z,70
2023-03-26T16:50:15.103Z,72
2023-03-26T16:55:15.097Z,73
2023-03-26T17:00:15.089Z,74
2023-03-26T17:05:15.089Z,71
2023-03-26T17:10:15.092Z,71
2023-03-26T17:15:15.100Z,72
2023-03-26T17:20:15.105Z,72
2023-03-26T17:25:15.087Z,72
2023-03-26T17:30:15.087Z,73
2023-03-26T17:35:15.087Z,73
2023-03-26T17:40:15.092Z,73
2023-03-26T17:45:15.090Z,73
2023-03-26T17:50:15.101Z,73
2023-03-26T17:55:15.111Z,73
2023-03-26T18:00:15.088Z,74
2023-03-26T18:05:15.102Z,74
2023-03-26T18:10:15.090Z,75
2023-03-26T18:15:15.091Z,76
2023-03-26T18:20:15.090Z,76
2023-03-26T18:25:15.097Z,77
2023-03-26T18:30:15.111Z,78
2023-03-26T18:35:15.095Z,79
2023-03-26T18:40:15.092Z,80
2023-03-26T18:45:15.091Z,80
2023-03-26T18:50:15.097Z,81
2023-03-26T18:55:15.085Z,81
2023-03-26T19:00:15.120Z,81
2023-03-26T19:05:15.078Z,83
2023-03-26T19:10:15.088Z,84
2023-03-26T19:15:15.097Z,84
2023-03-26T19:20:15.087Z,85
2023-03-26T19:25:15.086Z,85
2023-03-26T19:30:15.090Z,86
2023-03-26T19:35:15.076Z,86
2023-03-26T19:40:15.099Z,86
2023-03-26T19:45:15.092Z,86
2023-03-26T19:50:15.099Z,87
2023-03-26T19:55:15.095Z,86
2023-03-26T20:00:15.118Z,87
2023-03-26T20:05:15.097Z,87
2023-03-26T20:10:15.108Z,87
2023-03-26T20:15:18.956Z,87
2023-03-26T20:20:15.103Z,87
2023-03-26T20:25:15.087Z,87
2023-03-26T20:30:16.411Z,87
2023-03-26T20:35:15.087Z,86
2023-03-26T20:40:15.097Z,85
2023-03-26T20:45:15.087Z,85
2023-03-26T20:50:15.103Z,85
2023-03-26T20:55:15.095Z,85
2023-03-26T21:00:15.092Z,84
2023-03-26T21:05:15.103Z,85
2023-03-26T21:10:15.092Z,85
2023-03-26T21:15:22.726Z,84
2023-03-26T21:20:15.090Z,84
2023-03-26T21:25:15.103Z,84
2023-03-26T21:30:15.095Z,84
2023-03-26T21:35:15.202Z,84
2023-03-26T21:40:15.090Z,84
2023-03-26T21:45:15.095Z,84
2023-03-26T21:50:15.113Z,84
2023-03-26T21:55:15.085Z,84
2023-03-26T22:00:15.330Z,85
2023-03-26T22:05:15.095Z,85
2023-03-26T22:10:15.098Z,85
2023-03-26T22:15:15.102Z,86
2023-03-26T22:20:15.092Z,87
2023-03-26T22:25:15.087Z,88
2023-03-26T22:30:15.101Z,89
2023-03-26T22:35:15.111Z,89
2023-03-26T22:40:15.100Z,89
2023-03-26T22:45:15.134Z,89
2023-03-26T22:50:15.151Z,89
2023-03-26T22:55:15.115Z,89
2023-03-26T23:00:15.100Z,89
2023-03-26T23:05:15.249Z,89
2023-03-26T23:10:15.185Z,88
2023-03-26T23:15:15.190Z,88
2023-03-26T23:20:15.591Z,88
2023-03-26T23:25:15.111Z,89
2023-03-26T23:30:15.116Z,88
2023-03-26T23:35:15.141Z,88
2023-03-26T23:40:15.110Z,89
2023-03-26T23:45:15.117Z,88
2023-03-26T23:50:15.101Z,88
2023-03-26T23:55:15.103Z,88
